createdAt,value
2023-05-14T00:01:34.118Z,14.03
2023-05-14T00:04:04.390Z,14.19
2023-05-14T00:06:37.006Z,14.27
2023-05-14T00:09:07.420Z,14.17
2023-05-14T00:11:37.568Z,13.93
2023-05-14T00:14:08.545Z,14.02
2023-05-14T00:16:39.550Z,14.20
2023-05-14T00:19:09.330Z,14.10
2023-05-14T00:21:41.418Z,14.20
2023-05-14T00:24:11.632Z,14.07
2023-05-14T00:26:41.378Z,14.20
2023-05-14T00:29:11.770Z,14.04
2023-05-14T00:31:42.636Z,14.05
2023-05-14T00:34:12.770Z,13.92
2023-05-14T00:36:45.936Z,14.01
2023-05-14T00:39:16.941Z,14.12
2023-05-14T00:41:47.279Z,14.13
2023-05-14T00:44:17.002Z,13.97
2023-05-14T00:46:47.429Z,14.27
2023-05-14T00:49:18.665Z,13.97
2023-05-14T00:51:51.356Z,13.97
2023-05-14T00:54:23.195Z,14.10
2023-05-14T00:56:54.774Z,14.23
2023-05-14T00:59:24.978Z,14.09
2023-05-14T01:01:55.965Z,14.10
2023-05-14T01:04:28.836Z,14.08
2023-05-14T01:07:10.950Z,14.13
2023-05-14T01:09:46.981Z,14.24
2023-05-14T01:12:23.302Z,14.04
2023-05-14T01:14:59.679Z,14.29
2023-05-14T01:17:37.473Z,13.88
2023-05-14T01:20:09.878Z,14.25
2023-05-14T01:22:42.293Z,14.02
2023-05-14T01:25:12.736Z,14.22
2023-05-14T01:27:47.855Z,14.23
2023-05-14T01:30:21.842Z,14.03
2023-05-14T01:32:56.774Z,13.82
2023-05-14T01:35:29.770Z,13.87
2023-05-14T01:38:04.720Z,14.06
2023-05-14T01:40:36.658Z,13.97
2023-05-14T01:43:08.505Z,14.21
2023-05-14T01:45:39.474Z,14.18
2023-05-14T01:48:10.784Z,14.24
2023-05-14T01:50:43.517Z,14.14
2023-05-14T01:53:16.717Z,14.18
2023-05-14T01:55:47.459Z,13.93
2023-05-14T01:58:21.466Z,14.05
2023-05-14T02:00:51.885Z,14.18
2023-05-14T02:03:22.035Z,14.21
2023-05-14T02:05:52.497Z,14.00
2023-05-14T02:08:26.894Z,13.85
2023-05-14T02:10:57.197Z,14.13
2023-05-14T02:13:28.057Z,14.20
2023-05-14T02:15:59.779Z,13.89
2023-05-14T02:18:30.000Z,13.83
2023-05-14T02:20:59.792Z,13.94
2023-05-14T02:23:41.101Z,14.27
2023-05-14T02:26:13.062Z,13.93
2023-05-14T02:28:43.080Z,14.08
2023-05-14T02:31:14.831Z,14.13
2023-05-14T02:33:45.099Z,13.85
2023-05-14T02:36:16.182Z,13.92
2023-05-14T02:38:48.601Z,13.92
2023-05-14T02:41:19.203Z,14.03
2023-05-14T02:43:51.079Z,14.06
2023-05-14T02:46:21.871Z,14.00
2023-05-14T02:48:52.353Z,13.75
2023-05-14T02:51:23.460Z,14.09
2023-05-14T02:53:56.751Z,13.78
2023-05-14T02:56:28.505Z,14.10
2023-05-14T02:59:00.660Z,14.05
2023-05-14T03:01:30.973Z,14.18
2023-05-14T03:04:01.855Z,13.82
2023-05-14T03:06:32.769Z,13.87
2023-05-14T03:09:04.790Z,13.80
2023-05-14T03:11:38.295Z,13.73
2023-05-14T03:14:09.015Z,13.83
2023-05-14T03:16:40.393Z,13.85
2023-05-14T03:19:11.001Z,13.96
2023-05-14T03:21:41.874Z,13.76
2023-05-14T03:24:14.133Z,14.13
2023-05-14T03:26:44.521Z,13.83
2023-05-14T03:29:18.358Z,13.72
2023-05-14T03:31:48.434Z,13.85
2023-05-14T03:34:18.271Z,14.08
2023-05-14T03:36:48.538Z,13.92
2023-05-14T03:39:21.346Z,14.06
2023-05-14T03:41:51.615Z,14.06
2023-05-14T03:44:21.586Z,14.08
2023-05-14T03:46:52.205Z,14.09
2023-05-14T03:49:22.793Z,14.13
2023-05-14T03:51:52.914Z,14.00
2023-05-14T03:54:25.741Z,13.94
2023-05-14T03:56:55.856Z,13.90
2023-05-14T03:59:26.631Z,14.08
2023-05-14T04:01:56.691Z,13.85
2023-05-14T04:04:26.343Z,13.74
2023-05-14T04:06:57.072Z,13.83
2023-05-14T04:09:29.856Z,14.04
2023-05-14T04:12:00.403Z,13.91
2023-05-14T04:14:31.260Z,14.12
2023-05-14T04:17:01.523Z,13.92
2023-05-14T04:19:31.746Z,13.90
2023-05-14T04:22:01.907Z,13.98
2023-05-14T04:24:33.379Z,13.91
2023-05-14T04:27:03.103Z,13.74
2023-05-14T04:29:34.008Z,13.94
2023-05-14T04:32:05.297Z,13.86
2023-05-14T04:34:37.034Z,14.05
2023-05-14T04:37:09.535Z,14.19
2023-05-14T04:39:43.251Z,14.08
2023-05-14T04:42:14.108Z,13.83
2023-05-14T04:44:44.148Z,13.95
2023-05-14T04:47:14.389Z,13.73
2023-05-14T04:49:45.012Z,13.67
2023-05-14T04:52:15.211Z,13.85
2023-05-14T04:54:46.858Z,13.78
2023-05-14T04:57:16.945Z,13.49
2023-05-14T04:59:47.616Z,13.92
2023-05-14T05:02:17.731Z,13.99
2023-05-14T05:04:49.547Z,14.03
2023-05-14T05:07:19.922Z,13.86
2023-05-14T05:09:52.183Z,13.68
2023-05-14T05:12:23.199Z,13.83
2023-05-14T05:14:53.661Z,13.90
2023-05-14T05:17:24.260Z,14.13
2023-05-14T05:19:54.942Z,14.16
2023-05-14T05:22:26.940Z,14.26
2023-05-14T05:25:00.211Z,14.01
2023-05-14T05:27:30.448Z,13.95
2023-05-14T05:30:00.760Z,14.09
2023-05-14T05:32:30.855Z,14.17
2023-05-14T05:35:01.211Z,14.14
2023-05-14T05:37:31.899Z,14.10
2023-05-14T05:40:04.814Z,14.02
2023-05-14T05:42:35.850Z,14.02
2023-05-14T05:45:07.287Z,14.15
2023-05-14T05:47:37.320Z,14.09
2023-05-14T05:50:10.367Z,14.07
2023-05-14T05:52:41.026Z,14.14
2023-05-14T05:55:12.836Z,14.01
2023-05-14T05:57:43.029Z,14.14
2023-05-14T06:00:14.986Z,13.93
2023-05-14T06:02:45.633Z,14.27
2023-05-14T06:05:16.091Z,14.03
2023-05-14T06:07:46.343Z,14.26
2023-05-14T06:10:18.255Z,14.29
2023-05-14T06:12:49.054Z,14.08
2023-05-14T06:15:18.584Z,14.06
2023-05-14T06:17:49.761Z,14.17
2023-05-14T06:20:20.844Z,14.10
2023-05-14T06:22:51.824Z,13.67
2023-05-14T06:25:23.435Z,14.04
2023-05-14T06:27:53.587Z,13.89
2023-05-14T06:30:24.148Z,14.21
2023-05-14T06:32:55.472Z,13.87
2023-05-14T06:35:26.388Z,13.95
2023-05-14T06:37:57.106Z,13.91
2023-05-14T06:40:29.558Z,14.08
2023-05-14T06:43:00.396Z,14.24
2023-05-14T06:45:33.212Z,14.08
2023-05-14T06:48:03.752Z,13.97
2023-05-14T06:50:34.449Z,14.01
2023-05-14T06:53:05.479Z,14.17
2023-05-14T06:55:38.827Z,14.33
2023-05-14T06:58:09.252Z,14.22
2023-05-14T07:00:40.598Z,14.00
2023-05-14T07:03:11.208Z,13.93
2023-05-14T07:05:46.990Z,13.87
2023-05-14T07:08:17.088Z,13.76
2023-05-14T07:10:48.923Z,13.90
2023-05-14T07:13:19.203Z,13.78
2023-05-14T07:15:50.391Z,13.66
2023-05-14T07:18:20.914Z,13.85
2023-05-14T07:20:51.789Z,13.92
2023-05-14T07:23:22.345Z,13.97
2023-05-14T07:25:54.817Z,13.84
2023-05-14T07:28:25.342Z,13.88
2023-05-14T07:30:56.994Z,13.53
2023-05-14T07:33:27.786Z,13.41
2023-05-14T07:35:58.424Z,13.55
2023-05-14T07:38:29.140Z,13.64
2023-05-14T07:41:01.118Z,13.80
2023-05-14T07:43:31.980Z,13.65
2023-05-14T07:46:03.117Z,13.84
2023-05-14T07:48:33.526Z,13.88
2023-05-14T07:51:03.984Z,13.77
2023-05-14T07:53:33.831Z,13.74
2023-05-14T07:56:06.658Z,13.83
2023-05-14T07:58:39.623Z,13.79
2023-05-14T08:03:56.990Z,13.52
2023-05-14T08:06:30.501Z,13.74
2023-05-14T08:09:00.237Z,13.84
2023-05-14T08:11:31.549Z,13.69
2023-05-14T08:14:02.151Z,13.60
2023-05-14T08:16:32.950Z,13.74
2023-05-14T08:19:05.594Z,13.70
2023-05-14T08:21:38.082Z,13.91
2023-05-14T08:24:09.343Z,13.84
2023-05-14T08:26:41.277Z,13.61
2023-05-14T08:29:13.988Z,13.56
2023-05-14T08:31:45.987Z,13.62
2023-05-14T08:34:16.962Z,13.61
2023-05-14T08:36:47.256Z,13.64
2023-05-14T08:39:19.417Z,13.70
2023-05-14T08:41:53.831Z,13.84
2023-05-14T08:44:29.236Z,13.91
2023-05-14T08:46:59.150Z,13.76
2023-05-14T08:49:36.013Z,13.66
2023-05-14T08:52:07.117Z,13.86
2023-05-14T08:54:38.126Z,13.79
2023-05-14T08:57:11.784Z,13.92
2023-05-14T08:59:42.368Z,13.97
2023-05-14T09:02:15.387Z,13.80
2023-05-14T09:04:46.908Z,13.79
2023-05-14T09:07:18.142Z,13.84
2023-05-14T09:09:48.391Z,13.69
2023-05-14T09:12:20.838Z,13.70
2023-05-14T09:14:52.638Z,13.51
2023-05-14T09:17:23.888Z,13.57
2023-05-14T09:19:53.990Z,13.58
2023-05-14T09:22:24.010Z,13.54
2023-05-14T09:25:06.683Z,13.76
2023-05-14T09:27:39.624Z,13.56
2023-05-14T09:30:13.627Z,13.56
2023-05-14T09:32:46.251Z,13.46
2023-05-14T09:35:19.539Z,13.47
2023-05-14T09:37:51.819Z,13.64
2023-05-14T09:40:24.301Z,13.42
2023-05-14T09:43:02.573Z,13.56
2023-05-14T09:45:33.229Z,13.67
2023-05-14T09:48:04.764Z,13.70
2023-05-14T09:50:35.605Z,13.67
2023-05-14T09:53:06.928Z,13.49
2023-05-14T09:55:38.861Z,13.39
2023-05-14T09:58:15.876Z,13.76
2023-05-14T10:00:49.569Z,13.58
2023-05-14T10:03:21.457Z,13.22
2023-05-14T10:05:52.819Z,13.51
2023-05-14T10:08:29.157Z,13.49
2023-05-14T10:11:01.752Z,13.88
2023-05-14T10:13:36.902Z,13.58
2023-05-14T10:16:13.285Z,13.55
2023-05-14T10:18:47.198Z,13.90
2023-05-14T10:21:17.813Z,13.71
2023-05-14T10:23:49.541Z,13.74
2023-05-14T10:26:22.374Z,13.79
2023-05-14T10:28:56.419Z,13.83
2023-05-14T10:31:32.926Z,13.77
2023-05-14T10:34:03.852Z,13.89
2023-05-14T10:36:35.045Z,13.80
2023-05-14T10:39:07.446Z,13.82
2023-05-14T10:41:37.682Z,13.74
2023-05-14T10:44:12.949Z,13.82
2023-05-14T10:46:42.672Z,14.05
2023-05-14T10:49:14.602Z,14.09
2023-05-14T10:51:47.458Z,14.00
2023-05-14T10:54:19.444Z,13.94
2023-05-14T10:56:50.220Z,13.96
2023-05-14T10:59:22.950Z,13.80
2023-05-14T11:01:53.696Z,13.86
2023-05-14T11:04:27.192Z,13.83
2023-05-14T11:06:59.154Z,13.73
2023-05-14T11:09:31.872Z,13.84
2023-05-14T11:12:02.368Z,13.86
2023-05-14T11:14:36.020Z,14.00
2023-05-14T11:17:06.474Z,13.83
2023-05-14T11:19:37.917Z,13.65
2023-05-14T11:22:08.946Z,13.69
2023-05-14T11:24:39.655Z,13.74
2023-05-14T11:27:10.544Z,13.83
2023-05-14T11:29:45.355Z,13.81
2023-05-14T11:32:17.017Z,13.91
2023-05-14T11:34:48.616Z,13.96
2023-05-14T11:37:19.284Z,13.77
2023-05-14T11:39:52.387Z,13.90
2023-05-14T11:42:24.135Z,13.65
2023-05-14T11:44:58.982Z,13.90
2023-05-14T11:47:30.103Z,13.60
2023-05-14T11:50:02.415Z,13.70
2023-05-14T11:52:32.928Z,13.82
2023-05-14T11:55:04.281Z,13.76
2023-05-14T11:57:34.905Z,13.60
2023-05-14T12:00:14.182Z,13.84
2023-05-14T12:02:46.385Z,13.92
2023-05-14T12:05:16.669Z,13.72
2023-05-14T12:07:48.036Z,13.40
2023-05-14T12:10:18.411Z,13.26
2023-05-14T12:12:51.557Z,13.34
2023-05-14T12:15:24.250Z,13.50
2023-05-14T12:17:54.571Z,13.65
2023-05-14T12:20:26.563Z,13.97
2023-05-14T12:22:57.398Z,13.99
2023-05-14T12:25:28.497Z,13.65
2023-05-14T12:27:58.943Z,13.45
2023-05-14T12:30:39.534Z,13.65
2023-05-14T12:33:10.485Z,13.62
2023-05-14T12:35:41.477Z,13.61
2023-05-14T12:38:14.474Z,13.44
2023-05-14T12:40:45.484Z,13.66
2023-05-14T12:43:16.759Z,13.49
2023-05-14T12:45:49.135Z,13.57
2023-05-14T12:48:20.133Z,13.50
2023-05-14T12:50:50.089Z,13.68
2023-05-14T12:53:21.397Z,13.66
2023-05-14T12:55:53.111Z,13.46
2023-05-14T12:58:24.090Z,13.39
2023-05-14T13:00:57.702Z,13.51
2023-05-14T13:03:29.496Z,13.32
2023-05-14T13:06:00.961Z,13.42
2023-05-14T13:08:31.667Z,13.89
2023-05-14T13:11:02.118Z,13.90
2023-05-14T13:13:32.423Z,13.72
2023-05-14T13:16:04.740Z,13.94
2023-05-14T13:18:35.371Z,13.58
2023-05-14T13:21:06.773Z,13.57
2023-05-14T13:23:37.263Z,13.27
2023-05-14T13:26:06.881Z,13.43
2023-05-14T13:28:38.178Z,13.48
2023-05-14T13:31:12.160Z,13.50
2023-05-14T13:33:44.509Z,13.57
2023-05-14T13:36:16.279Z,13.25
2023-05-14T13:38:48.360Z,13.69
2023-05-14T13:41:19.176Z,13.41
2023-05-14T13:43:49.530Z,13.58
2023-05-14T13:46:21.877Z,13.40
2023-05-14T13:48:52.344Z,13.70
2023-05-14T13:51:24.080Z,13.65
2023-05-14T13:56:30.430Z,13.39
2023-05-14T13:59:00.697Z,13.33
2023-05-14T14:01:32.327Z,13.72
2023-05-14T14:04:02.347Z,13.81
2023-05-14T14:06:34.230Z,13.87
2023-05-14T14:09:04.261Z,13.53
2023-05-14T14:11:35.249Z,13.60
2023-05-14T14:14:06.111Z,13.61
2023-05-14T14:16:38.292Z,13.41
2023-05-14T14:19:09.063Z,13.50
2023-05-14T14:21:40.013Z,13.41
2023-05-14T14:24:10.047Z,13.26
2023-05-14T14:26:39.998Z,13.27
2023-05-14T14:29:10.799Z,13.58
2023-05-14T14:31:42.973Z,13.87
2023-05-14T14:34:13.521Z,13.69
2023-05-14T14:36:44.662Z,13.81
2023-05-14T14:39:15.993Z,13.68
2023-05-14T14:41:48.047Z,13.86
2023-05-14T14:44:20.506Z,13.86
2023-05-14T14:46:52.634Z,13.75
2023-05-14T14:49:22.437Z,14.03
2023-05-14T14:51:52.818Z,14.27
2023-05-14T14:54:22.373Z,13.98
2023-05-14T14:56:54.702Z,13.97
2023-05-14T14:59:24.525Z,13.95
2023-05-14T15:01:56.576Z,13.91
2023-05-14T15:04:26.813Z,13.80
2023-05-14T15:06:57.584Z,14.01
2023-05-14T15:09:27.480Z,14.06
2023-05-14T15:11:57.218Z,14.01
2023-05-14T15:14:27.079Z,14.16
2023-05-14T15:16:58.943Z,14.07
2023-05-14T15:19:29.134Z,13.94
2023-05-14T15:22:00.841Z,13.77
2023-05-14T15:24:31.322Z,13.82
2023-05-14T15:27:01.969Z,14.14
2023-05-14T15:29:33.637Z,14.13
2023-05-14T15:32:06.437Z,14.06
2023-05-14T15:34:36.286Z,14.19
2023-05-14T15:37:07.741Z,14.25
2023-05-14T15:39:37.421Z,13.99
2023-05-14T15:42:08.293Z,13.87
2023-05-14T15:44:40.599Z,14.04
2023-05-14T15:47:12.356Z,13.94
2023-05-14T15:49:42.079Z,14.00
2023-05-14T15:52:12.504Z,14.02
2023-05-14T15:54:42.530Z,14.06
2023-05-14T15:57:13.620Z,14.27
2023-05-14T15:59:45.239Z,13.98
2023-05-14T16:02:17.984Z,13.71
2023-05-14T16:04:50.252Z,13.73
2023-05-14T16:07:20.348Z,13.87
2023-05-14T16:09:51.537Z,13.95
2023-05-14T16:12:21.343Z,14.08
2023-05-14T16:14:51.521Z,13.79
2023-05-14T16:17:24.577Z,13.76
2023-05-14T16:19:56.486Z,14.03
2023-05-14T16:22:26.989Z,14.10
2023-05-14T16:24:58.448Z,14.08
2023-05-14T16:27:29.806Z,14.07
2023-05-14T16:29:59.740Z,14.15
2023-05-14T16:32:31.923Z,14.25
2023-05-14T16:35:03.522Z,13.79
2023-05-14T16:37:34.336Z,13.83
2023-05-14T16:40:06.212Z,13.90
2023-05-14T16:42:36.130Z,13.92
2023-05-14T16:45:06.648Z,14.15
2023-05-14T16:47:39.178Z,14.25
2023-05-14T16:50:11.058Z,14.29
2023-05-14T16:52:41.062Z,14.01
2023-05-14T16:55:12.288Z,14.15
2023-05-14T16:57:44.282Z,14.27
2023-05-14T17:00:16.334Z,14.25
2023-05-14T17:02:49.990Z,14.13
2023-05-14T17:05:19.712Z,14.40
2023-05-14T17:07:51.480Z,14.46
2023-05-14T17:10:21.884Z,14.20
2023-05-14T17:12:51.926Z,14.12
2023-05-14T17:15:22.527Z,14.08
2023-05-14T17:17:54.380Z,14.26
2023-05-14T17:20:24.981Z,14.40
2023-05-14T17:22:54.961Z,14.06
2023-05-14T17:25:26.653Z,14.18
2023-05-14T17:27:57.639Z,14.28
2023-05-14T17:30:28.429Z,14.38
2023-05-14T17:33:00.617Z,14.46
2023-05-14T17:35:31.202Z,14.47
2023-05-14T17:38:01.628Z,14.24
2023-05-14T17:40:31.808Z,14.23
2023-05-14T17:43:01.737Z,14.40
2023-05-14T17:45:39.397Z,14.39
2023-05-14T17:48:14.759Z,14.45
2023-05-14T17:50:44.569Z,14.44
2023-05-14T17:53:14.713Z,14.46
2023-05-14T17:55:44.543Z,14.46
2023-05-14T17:58:15.669Z,14.44
2023-05-14T18:00:46.394Z,14.52
2023-05-14T18:03:21.128Z,14.41
2023-05-14T18:05:53.059Z,14.39
2023-05-14T18:08:25.576Z,14.39
2023-05-14T18:10:55.994Z,14.31
2023-05-14T18:13:26.647Z,14.35
2023-05-14T18:15:57.228Z,14.45
2023-05-14T18:18:29.000Z,14.38
2023-05-14T18:20:59.176Z,14.38
2023-05-14T18:23:29.568Z,14.24
2023-05-14T18:26:00.313Z,14.14
2023-05-14T18:28:30.391Z,14.30
2023-05-14T18:31:01.010Z,13.96
2023-05-14T18:33:33.154Z,14.08
2023-05-14T18:36:04.128Z,14.28
2023-05-14T18:38:34.553Z,14.41
2023-05-14T18:41:04.536Z,14.30
2023-05-14T18:43:34.159Z,14.29
2023-05-14T18:46:04.615Z,14.08
2023-05-14T18:48:36.075Z,14.33
2023-05-14T18:51:08.616Z,14.09
2023-05-14T18:53:38.345Z,14.00
2023-05-14T18:56:08.221Z,14.08
2023-05-14T18:58:37.828Z,14.13
2023-05-14T19:01:07.774Z,14.22
2023-05-14T19:03:42.195Z,14.21
2023-05-14T19:06:12.523Z,14.20
2023-05-14T19:08:46.673Z,14.07
2023-05-14T19:11:20.131Z,14.16
2023-05-14T19:13:50.511Z,14.34
2023-05-14T19:16:21.499Z,14.29
2023-05-14T19:18:54.079Z,14.26
2023-05-14T19:21:24.307Z,14.33
2023-05-14T19:23:54.884Z,14.39
2023-05-14T19:26:25.640Z,14.35
2023-05-14T19:28:59.042Z,14.30
2023-05-14T19:31:31.707Z,14.24
2023-05-14T19:34:03.977Z,14.22
2023-05-14T19:36:34.388Z,14.25
2023-05-14T19:39:04.375Z,14.30
2023-05-14T19:41:34.391Z,14.30
2023-05-14T19:44:04.354Z,14.10
2023-05-14T19:46:35.189Z,14.32
2023-05-14T19:49:07.571Z,14.42
2023-05-14T19:51:37.155Z,14.41
2023-05-14T19:54:08.195Z,14.31
2023-05-14T19:56:39.049Z,14.39
2023-05-14T19:59:09.539Z,14.34
2023-05-14T20:01:39.889Z,14.36
2023-05-14T20:04:11.297Z,14.28
2023-05-14T20:06:41.990Z,14.05
2023-05-14T20:09:16.048Z,14.21
2023-05-14T20:11:46.536Z,14.28
2023-05-14T20:14:16.902Z,14.36
2023-05-14T20:16:48.029Z,14.36
2023-05-14T20:19:21.473Z,14.38
2023-05-14T20:21:51.496Z,14.28
2023-05-14T20:24:21.167Z,14.38
2023-05-14T20:26:51.169Z,14.27
2023-05-14T20:29:20.710Z,14.20
2023-05-14T20:31:51.428Z,14.18
2023-05-14T20:34:25.304Z,14.33
2023-05-14T20:36:56.049Z,14.15
2023-05-14T20:39:25.756Z,14.14
2023-05-14T20:41:57.182Z,14.07
2023-05-14T20:44:28.505Z,14.14
2023-05-14T20:46:58.540Z,14.32
2023-05-14T20:49:29.772Z,14.30
2023-05-14T20:52:00.333Z,14.34
2023-05-14T20:54:30.255Z,14.35
2023-05-14T20:56:59.882Z,14.25
2023-05-14T20:59:30.281Z,14.30
2023-05-14T21:02:00.658Z,14.31
2023-05-14T21:04:32.384Z,14.37
2023-05-14T21:07:04.623Z,14.38
2023-05-14T21:09:37.306Z,14.38
2023-05-14T21:12:10.636Z,14.37
2023-05-14T21:14:42.732Z,14.33
2023-05-14T21:17:13.296Z,14.27
2023-05-14T21:19:46.438Z,14.29
2023-05-14T21:22:16.937Z,14.28
2023-05-14T21:24:46.945Z,14.27
2023-05-14T21:27:17.624Z,14.27
2023-05-14T21:29:47.908Z,14.35
2023-05-14T21:32:18.368Z,14.22
2023-05-14T21:34:50.497Z,14.26
2023-05-14T21:37:20.074Z,14.24
2023-05-14T21:39:49.989Z,14.31
2023-05-14T21:42:21.216Z,14.37
2023-05-14T21:44:51.060Z,14.21
2023-05-14T21:47:21.504Z,13.94
2023-05-14T21:49:52.880Z,14.10
2023-05-14T21:52:23.065Z,14.23
2023-05-14T21:54:53.293Z,14.23
2023-05-14T21:57:23.503Z,14.27
2023-05-14T21:59:53.355Z,14.17
2023-05-14T22:02:23.682Z,14.14
2023-05-14T22:04:56.277Z,14.24
2023-05-14T22:07:27.269Z,14.22
2023-05-14T22:09:58.871Z,14.12
2023-05-14T22:12:29.625Z,14.14
2023-05-14T22:14:59.646Z,14.20
2023-05-14T22:17:31.532Z,13.92
2023-05-14T22:20:06.043Z,13.98
2023-05-14T22:22:37.347Z,13.93
2023-05-14T22:25:08.358Z,14.14
2023-05-14T22:27:38.252Z,14.19
2023-05-14T22:30:10.443Z,14.10
2023-05-14T22:32:41.064Z,14.14
2023-05-14T22:35:14.407Z,13.93
2023-05-14T22:37:44.563Z,14.04
2023-05-14T22:40:15.233Z,14.16
2023-05-14T22:42:46.422Z,14.10
2023-05-14T22:45:16.125Z,14.16
2023-05-14T22:47:46.224Z,14.11
2023-05-14T22:50:18.171Z,14.21
2023-05-14T22:52:48.498Z,13.84
2023-05-14T22:55:18.528Z,13.89
2023-05-14T22:57:48.398Z,13.65
2023-05-14T23:00:18.433Z,13.92
2023-05-14T23:02:48.500Z,13.93
2023-05-14T23:05:19.849Z,13.87
2023-05-14T23:07:49.945Z,13.32
2023-05-14T23:10:21.120Z,13.74
2023-05-14T23:12:52.393Z,13.32
2023-05-14T23:15:22.395Z,13.58
2023-05-14T23:17:53.748Z,13.51
2023-05-14T23:20:25.274Z,13.89
2023-05-14T23:22:55.390Z,13.73
2023-05-14T23:25:25.338Z,12.50
2023-05-14T23:27:56.308Z,13.39
2023-05-14T23:30:26.505Z,13.52
2023-05-14T23:32:56.765Z,13.62
2023-05-14T23:35:29.049Z,13.76
2023-05-14T23:37:59.101Z,13.90
2023-05-14T23:40:28.612Z,13.82
2023-05-14T23:43:00.148Z,13.90
2023-05-14T23:45:30.987Z,13.69
2023-05-14T23:48:03.661Z,13.84
2023-05-14T23:50:36.150Z,13.88
2023-05-14T23:53:06.912Z,13.28
2023-05-14T23:55:38.019Z,13.62
2023-05-14T23:58:08.996Z,13.96
